createdAt,value
2022-12-20T17:08:54.983Z,0.51
2022-12-20T17:09:54.797Z,0.51
2022-12-20T17:15:32.663Z,0.51
2022-12-20T17:16:32.513Z,0.51
2022-12-20T17:17:32.286Z,0.51
2022-12-20T17:18:32.072Z,0.51
2022-12-20T17:19:31.876Z,0.51
2022-12-20T17:20:36.580Z,0.51
2022-12-20T17:21:32.455Z,0.51
2022-12-20T17:22:52.192Z,0.51
2022-12-20T17:23:51.997Z,0.51
2022-12-20T17:24:30.859Z,0.51
2022-12-20T17:25:30.646Z,0.51
2022-12-20T17:43:27.055Z,0.55
2022-12-20T17:49:25.889Z,0.56
2022-12-20T17:59:23.877Z,0.60
2022-12-20T18:00:23.699Z,0.60
2022-12-20T18:01:23.627Z,0.60
2022-12-20T18:02:23.564Z,0.59
2022-12-20T18:04:01.727Z,0.61
2022-12-20T18:05:22.712Z,0.61
2022-12-20T18:06:22.508Z,0.61
2022-12-20T18:07:22.306Z,0.62
2022-12-20T18:08:22.109Z,0.62
2022-12-20T18:09:21.930Z,0.61
2022-12-20T18:10:21.695Z,0.61
2022-12-20T18:11:21.535Z,0.62
2022-12-20T18:12:21.310Z,0.62
2022-12-20T18:13:21.120Z,0.62
2022-12-20T18:14:20.920Z,0.64
2022-12-20T18:15:20.714Z,0.64
2022-12-20T18:16:21.285Z,0.63
2022-12-20T18:39:15.949Z,0.70
2022-12-20T18:40:15.879Z,0.70
2022-12-20T18:41:15.559Z,0.71
2022-12-20T18:42:15.349Z,0.71
2022-12-20T18:43:15.159Z,0.72
2022-12-20T18:44:15.001Z,0.70
2022-12-20T18:45:14.771Z,0.71
2022-12-20T18:46:14.811Z,0.72
2022-12-20T18:47:14.382Z,0.71
2022-12-20T18:48:14.206Z,0.73
2022-12-20T18:49:14.009Z,0.72
2022-12-20T18:50:13.815Z,0.72
2022-12-20T18:51:13.642Z,0.73
2022-12-20T18:52:13.449Z,0.72
2022-12-20T18:53:13.238Z,0.74
2022-12-20T18:54:13.042Z,0.74
2022-12-20T18:55:12.866Z,0.74
2022-12-20T18:56:12.666Z,0.74
2022-12-20T18:57:12.485Z,0.74
2022-12-20T18:58:12.283Z,0.76
2022-12-20T18:59:13.131Z,0.76
2022-12-20T19:00:11.884Z,0.76
2022-12-20T19:01:11.753Z,0.75
2022-12-20T19:02:11.692Z,0.76
2022-12-20T19:03:11.462Z,0.78
2022-12-20T19:04:11.093Z,0.77
2022-12-20T19:05:10.905Z,0.76
2022-12-20T19:06:10.709Z,0.79
2022-12-20T19:36:04.918Z,0.82
2022-12-20T19:44:03.354Z,0.84
2022-12-20T19:45:03.189Z,0.84
2022-12-20T19:46:03.076Z,0.84
2022-12-20T19:47:04.802Z,0.83
2022-12-20T19:48:02.578Z,0.84
2022-12-20T19:49:02.383Z,0.84
2022-12-20T19:50:02.207Z,0.85
2022-12-20T19:51:02.013Z,0.85
2022-12-20T19:52:01.799Z,0.87
2022-12-20T19:53:01.599Z,0.85
2022-12-20T19:54:01.411Z,0.83
2022-12-20T19:55:01.215Z,0.85
2022-12-20T19:56:01.320Z,0.85
2022-12-20T19:57:00.873Z,0.86
2022-12-20T19:58:00.647Z,0.85
2022-12-20T20:07:58.656Z,0.85
2022-12-20T20:08:58.478Z,0.86
2022-12-20T20:09:58.267Z,0.87
2022-12-20T20:10:58.284Z,0.88
2022-12-20T20:11:57.876Z,0.88
2022-12-20T20:12:57.689Z,0.89
2022-12-20T20:13:57.487Z,0.87
2022-12-20T20:14:57.287Z,0.89
2022-12-20T20:15:57.233Z,0.89
2022-12-20T20:16:56.891Z,0.89
2022-12-20T20:17:56.694Z,0.90
2022-12-20T20:18:56.508Z,0.90
2022-12-20T20:19:56.322Z,0.88
2022-12-20T20:20:56.125Z,0.90
2022-12-20T20:21:56.011Z,0.89
2022-12-20T20:22:55.719Z,0.89
2022-12-20T20:23:55.539Z,0.87
2022-12-20T20:24:55.343Z,0.88
2022-12-20T20:25:55.173Z,0.88
2022-12-20T20:26:54.963Z,0.89
2022-12-20T20:27:54.785Z,0.88
2022-12-20T20:28:54.557Z,0.89
2022-12-20T20:29:54.369Z,0.91
2022-12-20T20:30:54.181Z,0.89
2022-12-20T20:31:53.978Z,0.88
2022-12-20T20:32:53.833Z,0.89
2022-12-20T20:33:53.590Z,0.89
2022-12-20T20:34:53.388Z,0.89
2022-12-20T20:35:53.832Z,0.90
2022-12-20T20:36:52.994Z,0.89
2022-12-20T20:37:52.792Z,0.90
2022-12-20T20:38:52.656Z,0.91
2022-12-20T20:39:52.435Z,0.91
2022-12-20T20:40:52.202Z,0.91
2022-12-20T20:41:51.998Z,0.93
2022-12-20T20:42:51.808Z,0.90
2022-12-20T20:43:51.592Z,0.91
2022-12-20T20:44:51.389Z,0.91
2022-12-20T20:45:51.220Z,0.89
2022-12-20T20:46:51.083Z,0.90
2022-12-20T20:47:50.790Z,0.92
2022-12-20T20:48:51.294Z,0.92
2022-12-20T21:02:47.978Z,0.91
2022-12-20T21:03:47.754Z,0.93
2022-12-20T21:05:16.595Z,0.93
2022-12-20T21:06:31.129Z,0.93
2022-12-20T21:06:48.050Z,0.93
2022-12-20T21:07:46.864Z,0.93
2022-12-20T21:08:46.668Z,0.93
2022-12-20T21:09:46.477Z,0.93
2022-12-20T21:10:46.384Z,0.93
2022-12-20T21:11:46.254Z,0.94
2022-12-20T21:12:45.982Z,0.92
2022-12-20T21:13:45.697Z,0.93
2022-12-20T21:15:20.869Z,0.93
2022-12-20T21:15:46.361Z,0.93
2022-12-20T21:16:45.156Z,0.93
2022-12-20T21:17:44.900Z,0.93
2022-12-20T21:18:44.725Z,0.95
2022-12-20T21:19:44.512Z,0.92
2022-12-20T21:20:44.311Z,0.95
2022-12-20T21:21:44.118Z,0.94
2022-12-20T21:22:43.934Z,0.94
2022-12-20T21:23:43.747Z,0.95
2022-12-20T21:24:43.515Z,0.93
2022-12-20T21:25:43.357Z,0.94
2022-12-20T21:26:43.125Z,0.93
2022-12-20T21:27:42.927Z,0.94
2022-12-20T21:28:42.730Z,0.94
2022-12-20T21:29:42.534Z,0.93
2022-12-20T21:30:42.351Z,0.95
2022-12-20T21:31:42.219Z,0.92
2022-12-20T21:32:41.956Z,0.94
2022-12-20T21:33:41.779Z,0.95
2022-12-20T21:34:41.560Z,0.96
2022-12-20T21:35:41.371Z,0.95
2022-12-20T21:36:41.182Z,0.93
2022-12-20T21:37:41.008Z,0.94
2022-12-20T21:38:40.809Z,0.94
2022-12-20T21:39:40.690Z,0.94
2022-12-20T23:04:23.949Z,0.94
2022-12-20T23:05:23.766Z,0.96
2022-12-20T23:06:23.578Z,0.94
2022-12-20T23:07:23.379Z,0.94
2022-12-20T23:08:23.182Z,0.93
2022-12-20T23:09:22.992Z,0.95
2022-12-20T23:10:22.807Z,0.95
2022-12-20T23:11:22.600Z,0.94
2022-12-20T23:12:22.414Z,0.94
2022-12-20T23:13:22.207Z,0.95
2022-12-20T23:14:21.998Z,0.95
2022-12-20T23:15:21.797Z,0.96
2022-12-20T23:16:21.650Z,0.96
2022-12-20T23:17:21.419Z,0.94
2022-12-20T23:18:21.232Z,0.94
2022-12-20T23:19:21.020Z,0.95
2022-12-20T23:20:20.886Z,0.96
2022-12-20T23:21:20.756Z,0.94
2022-12-20T23:38:17.323Z,0.95
2022-12-20T23:39:17.128Z,0.95
2022-12-20T23:40:16.909Z,0.94
2022-12-20T23:41:16.723Z,0.94
2022-12-20T23:42:16.536Z,0.94
2022-12-20T23:43:16.324Z,0.94
2022-12-20T23:44:16.156Z,0.95
2022-12-20T23:45:16.012Z,0.94
2022-12-20T23:46:15.779Z,0.93
2022-12-20T23:47:18.788Z,0.93
2022-12-20T23:48:15.325Z,0.93
2022-12-20T23:49:15.148Z,0.93
2022-12-20T23:50:14.979Z,0.93
2022-12-20T23:51:14.742Z,0.96
2022-12-20T23:52:14.549Z,0.94
2022-12-20T23:53:14.349Z,0.93
2022-12-20T23:54:14.154Z,0.95
2022-12-20T23:55:13.959Z,0.94
2022-12-20T23:56:13.774Z,0.94
2022-12-20T23:57:13.550Z,0.96
2022-12-20T23:58:13.358Z,0.94
2022-12-20T23:59:13.158Z,0.93
